M I D A S
Marine Information and Data Acquisition System
Tripno 224 of the Zeeleeuw from 2002-03-01 07:40:00 to 2002-03-01 16:05:00
Back to CruiseResearch ActivitiesStationsMapUnderway DataData graphs

EquipmentUnitsComment
TimeDGPSUTC
LatitudeDGPSDM.mWGS84
LongitudeDGPSDM.mWGS84
TemperatureSBE03/SBE38deg celciusITS90
ConductivitySBE21S/mITS90
SalinitySBE21 Practical Salinity Units
ChlorophylAChelsea fluorimeterg/lCalibrated in Aceton
Missing or incorrect values are displayed as -999
Sea surface data collected by the RV Zeeleeuw from 2002-03-01 07:40:00 to 2002-03-01 16:05:00
                                                                                    Next 1000 lines
Time Latitude Longitude Temperature Conductivity Salinity ChlorophylA
2002-03-01 07:49:05 51°14.297 2°55.205 18.939698 0.020685 0.114264  
2002-03-01 07:49:10 51°14.306 2°55.19 18.50134 0.020784 0.114807  
2002-03-01 07:49:14 51°14.313 2°55.177 18.50134 0.020784 0.114807  
2002-03-01 07:49:20 51°14.323 2°55.159 18.685929 0.020685 0.114278  
2002-03-01 07:49:25 51°14.331 2°55.143 18.188515 0.020685 0.114283  
2002-03-01 07:49:30 51°14.34 2°55.127 18.387726 0.020784 0.114828  
2002-03-01 07:49:35 51°14.348 2°55.11 18.846546 0.020685 0.114296  
2002-03-01 07:49:40 51°14.356 2°55.094 18.774849 0.020685 0.1143  
2002-03-01 07:49:45 51°14.364 2°55.078 18.774849 0.020685 0.1143  
2002-03-01 07:49:50 51°14.372 2°55.062 18.925113 0.020685 0.114308  
2002-03-01 07:49:55 51°14.38 2°55.046 18.235923 0.020685 0.114315  
2002-03-01 07:50:00 51°14.388 2°55.029 18.762495 0.020685 0.114322  
2002-03-01 07:50:05 51°14.396 2°55.011 18.919278 0.020685 0.114327  
2002-03-01 07:50:10 51°14.404 2°54.994 18.731227 0.020685 0.114331  
2002-03-01 07:50:15 51°14.412 2°54.977 18.845065 0.020685 0.114337  
2002-03-01 07:50:20 51°14.42 2°54.958 18.845065 0.020685 0.114337  
2002-03-01 07:50:25 51°14.428 2°54.939 19.011349 0.020685 0.114344  
2002-03-01 07:50:30 51°14.436 2°54.919 18.14872 0.020685 0.114346  
2002-03-01 07:50:35 51°14.445 2°54.899 18.756852 0.020685 0.114353  
2002-03-01 07:50:39 51°14.451 2°54.881 17.987148 0.020685 0.11436  
2002-03-01 07:50:45 51°14.461 2°54.855 18.563406 0.020685 0.114363  
2002-03-01 07:50:50 51°14.469 2°54.832 18.563406 0.020685 0.114363  
2002-03-01 07:50:54 51°14.475 2°54.814 18.82939 0.020685 0.114367  
2002-03-01 07:50:59 51°14.485 2°54.792 19.460351 0.020685 0.114368  
2002-03-01 07:51:05 51°14.497 2°54.765 18.35658 0.020685 0.114368  
2002-03-01 07:51:10 51°14.508 2°54.743 19.504376 0.020685 0.114372  
2002-03-01 07:51:15 51°14.519 2°54.721 19.504376 0.020685 0.114372  
2002-03-01 07:51:20 51°14.531 2°54.7 19.076447 0.020685 0.114372  
2002-03-01 07:51:25 51°14.544 2°54.681 18.987829 0.020685 0.114363  
2002-03-01 07:51:30 51°14.558 2°54.663 18.868797 0.020685 0.114355  
2002-03-01 07:51:35 51°14.572 2°54.646 18.725582 0.020685 0.114358  
2002-03-01 07:51:39 51°14.584 2°54.634 18.16646 0.020685 0.11436  
2002-03-01 07:51:45 51°14.603 2°54.617 18.16646 0.020685 0.11436  
2002-03-01 07:51:50 51°14.619 2°54.603 18.573483 0.020685 0.114367  
2002-03-01 07:51:55 51°14.635 2°54.59 18.84671 0.020685 0.114379  
2002-03-01 07:52:00 51°14.651 2°54.577 18.79136 0.020685 0.114389  
2002-03-01 07:52:04 51°14.664 2°54.568 19.343346 0.020685 0.114401  
2002-03-01 07:52:10 51°14.684 2°54.555 19.054714 0.020685 0.114413  
2002-03-01 07:52:15 51°14.7 2°54.545 19.054714 0.020685 0.114413  
2002-03-01 07:52:20 51°14.717 2°54.538 19.006013 0.020685 0.114415  
2002-03-01 07:52:25 51°14.735 2°54.53 18.81865 0.020685 0.114423  
2002-03-01 07:52:29 51°14.748 2°54.526 18.798317 0.020685 0.114428  
2002-03-01 07:52:34 51°14.766 2°54.521 18.980439 0.020685 0.114435  
2002-03-01 07:52:40 51°14.787 2°54.516 18.562249 0.020685 0.114442  
2002-03-01 07:52:45 51°14.804 2°54.514 18.562249 0.020685 0.114442  
2002-03-01 07:52:50 51°14.821 2°54.511 18.496958 0.020685 0.114451  
2002-03-01 07:52:55 51°14.839 2°54.51 18.81511 0.020685 0.114454  
2002-03-01 07:53:00 51°14.856 2°54.509 18.522999 0.020685 0.114452  
2002-03-01 07:53:05 51°14.873 2°54.51 18.966437 0.020685 0.114458  
2002-03-01 07:53:10 51°14.891 2°54.512 18.978263 0.020685 0.114464  
2002-03-01 07:53:15 51°14.907 2°54.513 18.978263 0.020685 0.114464  
2002-03-01 07:53:20 51°14.924 2°54.516 18.864561 0.020685 0.114475  
2002-03-01 07:53:24 51°14.938 2°54.518 18.403169 0.020685 0.114482  
2002-03-01 07:53:30 51°14.958 2°54.52 18.763318 0.020685 0.114492  
2002-03-01 07:53:35 51°14.974 2°54.522 17.647175 0.020685 0.114497  
2002-03-01 07:53:40 51°14.991 2°54.524 18.359562 0.020685 0.114504  
2002-03-01 07:53:45 51°15.007 2°54.526 17.987606 0.020685 0.114507  
2002-03-01 07:53:50 51°15.023 2°54.53 17.987606 0.020685 0.114507  
2002-03-01 07:53:55 51°15.038 2°54.533 18.899303 0.020685 0.114519  
2002-03-01 07:54:00 51°15.054 2°54.536 19.000349 0.020685 0.114526  
2002-03-01 07:54:05 51°15.07 2°54.54 18.42879 0.020685 0.114519  
2002-03-01 07:54:10 51°15.085 2°54.545 18.249491 0.020685 0.114521  
2002-03-01 07:54:15 51°15.101 2°54.549 18.619845 0.020685 0.114526  
2002-03-01 07:54:20 51°15.116 2°54.554 18.619845 0.020685 0.114526  
2002-03-01 07:54:24 51°15.129 2°54.558 18.145853 0.020685 0.114535  
2002-03-01 07:54:30 51°15.147 2°54.564 18.483768 0.020685 0.114537  
2002-03-01 07:54:35 51°15.163 2°54.569 19.190706 0.020685 0.11454  
2002-03-01 07:54:40 51°15.178 2°54.573 18.649801 0.020685 0.114547  
2002-03-01 07:54:45 51°15.194 2°54.576 18.649801 0.020685 0.114547  
2002-03-01 07:54:50 51°15.21 2°54.577 19.452032 0.020685 0.114556  
2002-03-01 07:54:55 51°15.226 2°54.577 18.441039 0.020685 0.114562  
2002-03-01 07:55:00 51°15.242 2°54.575 18.945367 0.020685 0.114571  
2002-03-01 07:55:05 51°15.258 2°54.572 18.289519 0.020685 0.114574  
2002-03-01 07:55:10 51°15.274 2°54.566 18.871264 0.020685 0.114547  
2002-03-01 07:55:15 51°15.29 2°54.559 18.864479 0.020685 0.114547  
2002-03-01 07:55:20 51°15.305 2°54.551 18.864479 0.020685 0.114547  
2002-03-01 07:55:24 51°15.318 2°54.543 18.388471 0.020685 0.114564  
2002-03-01 07:55:30 51°15.336 2°54.529 19.40675 0.020685 0.114574  
2002-03-01 07:55:35 51°15.352 2°54.517 18.945532 0.020685 0.114585  
2002-03-01 07:55:40 51°15.367 2°54.507 18.341291 0.020685 0.11459  
2002-03-01 07:55:45 51°15.383 2°54.497 18.341291 0.020685 0.11459  
2002-03-01 07:55:50 51°15.399 2°54.488 19.677273 0.020685 0.114593  
2002-03-01 07:55:55 51°15.416 2°54.48 18.941834 0.020685 0.114597  
2002-03-01 07:56:00 51°15.432 2°54.472 18.67261 0.020685 0.1146  
2002-03-01 07:56:05 51°15.449 2°54.467 18.806179 0.020685 0.114602  
2002-03-01 07:56:10 51°15.466 2°54.462 17.031498 0.020685 0.114605  
2002-03-01 07:56:15 51°15.483 2°54.458 17.031498 0.020685 0.114605  
2002-03-01 07:56:20 51°15.5 2°54.454 17.098018 0.020685 0.114611  
2002-03-01 07:56:24 51°15.513 2°54.45 17.364297 0.020685 0.114614  
2002-03-01 07:56:30 51°15.534 2°54.445 17.199068 0.020685 0.114621  
2002-03-01 07:56:35 51°15.551 2°54.441 18.932221 0.020685 0.114628  
2002-03-01 07:56:40 51°15.568 2°54.437 18.771514 0.020685 0.114633  
2002-03-01 07:56:45 51°15.585 2°54.435 18.771514 0.020685 0.114633  
2002-03-01 07:56:50 51°15.603 2°54.433 18.228245 0.020685 0.114635  
2002-03-01 07:56:55 51°15.62 2°54.432 17.821816 0.020685 0.114638  
2002-03-01 07:57:00 51°15.638 2°54.432 18.731928 0.020685 0.114642  
2002-03-01 07:57:05 51°15.655 2°54.433 17.989105 0.020685 0.114642  
2002-03-01 07:57:10 51°15.673 2°54.433 18.111273 0.020685 0.114647  
2002-03-01 07:57:15 51°15.69 2°54.433 19.566412 0.020685 0.114652  
2002-03-01 07:57:20 51°15.707 2°54.434 19.566412 0.020685 0.114652  
2002-03-01 07:57:24 51°15.721 2°54.435 18.433756 0.020685 0.114655  
2002-03-01 07:57:30 51°15.743 2°54.437 18.459573 0.020685 0.114661  
2002-03-01 07:57:35 51°15.76 2°54.437 18.761465 0.020685 0.114664  
2002-03-01 07:57:40 51°15.778 2°54.437 18.082498 0.020685 0.114671  
2002-03-01 07:57:45 51°15.796 2°54.435 18.558367 0.020685 0.114673  
2002-03-01 07:57:50 51°15.814 2°54.433 18.558367 0.020685 0.114673  
2002-03-01 07:57:55 51°15.831 2°54.431 18.453285 0.020685 0.114678  
2002-03-01 07:58:00 51°15.849 2°54.426 17.910557 0.020685 0.114683  
2002-03-01 07:58:05 51°15.867 2°54.422 18.899715 0.020685 0.114685  
2002-03-01 07:58:10 51°15.885 2°54.419 18.132223 0.020685 0.114688  
2002-03-01 07:58:15 51°15.903 2°54.415 18.696401 0.020685 0.11469  
2002-03-01 07:58:20 51°15.921 2°54.412 18.696401 0.020685 0.11469  
2002-03-01 07:58:24 51°15.936 2°54.41 18.599868 0.020685 0.114693  
2002-03-01 07:58:29 51°15.954 2°54.408 19.166592 0.020685 0.114695  
2002-03-01 07:58:35 51°15.973 2°54.407 18.563199 0.020685 0.114699  
2002-03-01 07:58:40 51°15.989 2°54.407 18.49365 0.020685 0.114704  
2002-03-01 07:58:45 51°16.004 2°54.408 18.49365 0.020685 0.114704  
2002-03-01 07:58:50 51°16.018 2°54.41 18.128357 0.020685 0.114706  
2002-03-01 07:58:55 51°16.031 2°54.413 18.23252 0.020685 0.114706  
2002-03-01 07:59:00 51°16.042 2°54.418 17.951655 0.020685 0.114706  
2002-03-01 07:59:05 51°16.053 2°54.423 18.631813 0.020685 0.114706  
2002-03-01 07:59:10 51°16.062 2°54.427 18.767684 0.020685 0.114709  
2002-03-01 07:59:15 51°16.071 2°54.433 18.767684 0.020685 0.114709  
2002-03-01 07:59:20 51°16.079 2°54.438 18.899057 0.020685 0.114712  
2002-03-01 07:59:24 51°16.085 2°54.443 18.68931 0.020685 0.114721  
2002-03-01 07:59:30 51°16.092 2°54.449 18.621661 0.020685 0.114728  
2002-03-01 07:59:35 51°16.098 2°54.455 18.622734 0.020685 0.114712  
2002-03-01 07:59:40 51°16.104 2°54.461 18.167873 0.020685 0.114707  
2002-03-01 07:59:45 51°16.109 2°54.466 18.167873 0.020685 0.114707  
2002-03-01 07:59:50 51°16.114 2°54.47 19.185957 0.020685 0.114697  
2002-03-01 07:59:55 51°16.119 2°54.476 18.090192 0.020685 0.114687  
2002-03-01 08:00:00 51°16.124 2°54.48 18.244678 0.020685 0.11468  
2002-03-01 08:00:05 51°16.128 2°54.484 18.684939 0.020685 0.11469  
2002-03-01 08:00:10 51°16.132 2°54.488 18.548659 0.020685 0.114706  
2002-03-01 08:00:15 51°16.136 2°54.492 18.548659 0.020685 0.114706  
2002-03-01 08:00:20 51°16.14 2°54.496 18.275294 0.020685 0.114716  
2002-03-01 08:00:25 51°16.143 2°54.5 18.721832 0.020685 0.114726  
2002-03-01 08:00:30 51°16.147 2°54.502 18.686919 0.020685 0.114738  
2002-03-01 08:00:35 51°16.15 2°54.506 18.629584 0.020685 0.114744  
2002-03-01 08:00:40 51°16.153 2°54.508 18.658629 0.020685 0.11475  
2002-03-01 08:00:45 51°16.156 2°54.512 18.241027 0.020685 0.114735  
2002-03-01 08:00:50 51°16.159 2°54.514 18.241027 0.020685 0.114735  
2002-03-01 08:00:55 51°16.162 2°54.517 18.116926 0.020685 0.114742  
2002-03-01 08:01:00 51°16.165 2°54.519 18.757758 0.020685 0.11475  
2002-03-01 08:01:05 51°16.167 2°54.522 17.932609 0.020685 0.114759  
2002-03-01 08:01:10 51°16.17 2°54.523 18.054585 0.020586 0.114225  
2002-03-01 08:01:15 51°16.173 2°54.524 18.315057 0.020685 0.114756  
2002-03-01 08:01:20 51°16.176 2°54.526 18.315057 0.020685 0.114756  
2002-03-01 08:01:25 51°16.178 2°54.527 18.316757 0.020586 0.114215  
2002-03-01 08:01:30 51°16.181 2°54.529 18.725129 0.020586 0.114222  
2002-03-01 08:01:35 51°16.183 2°54.529 18.407681 0.020586 0.114232  
2002-03-01 08:01:40 51°16.185 2°54.531 17.835133 0.020586 0.114248  
2002-03-01 08:01:45 51°16.188 2°54.532 17.681151 0.020586 0.11426  
2002-03-01 08:01:50 51°16.19 2°54.532 17.681151 0.020586 0.11426  
2002-03-01 08:01:55 51°16.192 2°54.533 18.493071 0.020586 0.114256  
2002-03-01 08:02:00 51°16.194 2°54.534 18.38963 0.020586 0.11426  
2002-03-01 08:02:05 51°16.196 2°54.534 18.71701 0.020586 0.114263  
2002-03-01 08:02:10 51°16.198 2°54.535 18.114141 0.020586 0.114265  
2002-03-01 08:02:15 51°16.2 2°54.535 18.114141 0.020586 0.114265  
2002-03-01 08:02:20 51°16.201 2°54.535 18.428873 0.020586 0.114267  
2002-03-01 08:02:25 51°16.203 2°54.535 17.944404 0.020685 0.114811  
2002-03-01 08:02:30 51°16.205 2°54.535 18.597143 0.020586 0.114274  
2002-03-01 08:02:35 51°16.207 2°54.535 17.94407 0.020586 0.114279  
2002-03-01 08:02:39 51°16.208 2°54.535 17.776088 0.020586 0.11428  
2002-03-01 08:02:45 51°16.21 2°54.535 17.43818 0.020586 0.114284  
2002-03-01 08:02:50 51°16.212 2°54.535 17.43818 0.020586 0.114284  
2002-03-01 08:02:55 51°16.213 2°54.534 18.186438 0.020586 0.114286  
2002-03-01 08:03:00 51°16.215 2°54.534 18.257457 0.020586 0.114289  
2002-03-01 08:03:05 51°16.216 2°54.534 18.088196 0.020586 0.114291  
2002-03-01 08:03:09 51°16.218 2°54.534 18.438432 0.020586 0.114294  
2002-03-01 08:03:15 51°16.22 2°54.533 18.438432 0.020586 0.114294  
2002-03-01 08:03:20 51°16.221 2°54.533 17.608366 0.020586 0.114298  
2002-03-01 08:03:25 51°16.223 2°54.532 17.779722 0.020586 0.114301  
2002-03-01 08:03:29 51°16.224 2°54.532 17.950905 0.020586 0.114305  
2002-03-01 08:03:35 51°16.225 2°54.531 18.12391 0.020586 0.114305  
2002-03-01 08:03:40 51°16.227 2°54.531 18.307513 0.020586 0.114308  
2002-03-01 08:03:45 51°16.229 2°54.529 18.307513 0.020586 0.114308  
2002-03-01 08:03:50 51°16.23 2°54.528 17.891667 0.020586 0.11431  
2002-03-01 08:03:55 51°16.232 2°54.527 18.115804 0.020586 0.114313  
2002-03-01 08:04:00 51°16.233 2°54.527 18.002348 0.020586 0.114315  
2002-03-01 08:04:05 51°16.234 2°54.526 17.67429 0.020586 0.114318  
2002-03-01 08:04:10 51°16.235 2°54.525 17.8512 0.020586 0.11432  
2002-03-01 08:04:15 51°16.237 2°54.524 17.650314 0.020586 0.114322  
2002-03-01 08:04:20 51°16.238 2°54.523 17.650314 0.020586 0.114322  
2002-03-01 08:04:25 51°16.239 2°54.523 18.20421 0.020586 0.114323  
2002-03-01 08:04:30 51°16.24 2°54.522 17.746337 0.020586 0.114325  
2002-03-01 08:04:35 51°16.241 2°54.521 18.332921 0.020586 0.114327  
2002-03-01 08:04:40 51°16.242 2°54.52 17.954071 0.020586 0.114329  
2002-03-01 08:04:45 51°16.243 2°54.519 17.715487 0.020586 0.114332  
2002-03-01 08:04:50 51°16.244 2°54.519 17.715487 0.020586 0.114332  
2002-03-01 08:04:54 51°16.245 2°54.518 18.229449 0.020586 0.114334  
2002-03-01 08:05:00 51°16.246 2°54.517 18.055542 0.020586 0.114336  
2002-03-01 08:05:05 51°16.247 2°54.516 18.581825 0.020586 0.114336  
2002-03-01 08:05:10 51°16.248 2°54.515 17.620049 0.020586 0.114339  
2002-03-01 08:05:15 51°16.249 2°54.514 17.307372 0.020586 0.114342  
2002-03-01 08:05:19 51°16.25 2°54.512 17.307372 0.020586 0.114342  
2002-03-01 08:05:25 51°16.251 2°54.512 18.454113 0.020586 0.114342  
2002-03-01 08:05:30 51°16.252 2°54.51 17.72017 0.020586 0.114344  
2002-03-01 08:05:35 51°16.253 2°54.509 17.443385 0.020586 0.114348  
2002-03-01 08:05:39 51°16.254 2°54.509 17.761298 0.020586 0.114348  
2002-03-01 08:05:45 51°16.255 2°54.507 17.903176 0.020586 0.114348  
2002-03-01 08:05:50 51°16.256 2°54.507 17.903176 0.020586 0.114348  
2002-03-01 08:05:55 51°16.257 2°54.506 17.891041 0.020586 0.114351  
2002-03-01 08:06:00 51°16.258 2°54.505 17.594169 0.020586 0.114351  
2002-03-01 08:06:05 51°16.258 2°54.503 17.871937 0.020586 0.114358  
2002-03-01 08:06:10 51°16.259 2°54.502 17.933735 0.020586 0.114367  
2002-03-01 08:06:15 51°16.26 2°54.501 17.827452 0.020586 0.114363  
2002-03-01 08:06:19 51°16.261 2°54.5 17.827452 0.020586 0.114363  
2002-03-01 08:06:25 51°16.262 2°54.499 18.373521 0.020586 0.114358  
2002-03-01 08:06:30 51°16.262 2°54.498 18.133386 0.020586 0.114356  
2002-03-01 08:06:35 51°16.263 2°54.497 17.99681 0.020586 0.114358  
2002-03-01 08:06:39 51°16.264 2°54.496 17.380811 0.020586 0.114358  
2002-03-01 08:06:43 51°16.264 2°54.495 17.380811 0.020586 0.114358  
2002-03-01 08:06:49 51°16.265 2°54.494 17.564549 0.020586 0.11436  
2002-03-01 08:06:55 51°16.266 2°54.492 17.412441 0.020586 0.11436  
2002-03-01 08:06:59 51°16.266 2°54.491 17.765894 0.020586 0.114361  
2002-03-01 08:07:05 51°16.267 2°54.49 17.04881 0.020586 0.114363  
2002-03-01 08:07:09 51°16.268 2°54.489 14.65774 0.020586 0.114346  
2002-03-01 08:07:14 51°16.268 2°54.488 14.65774 0.020586 0.114346  
2002-03-01 08:07:19 51°16.269 2°54.486 14.58932 0.020586 0.114315  
2002-03-01 08:07:25 51°16.27 2°54.485 14.591859 0.020586 0.114313  
2002-03-01 08:07:29 51°16.27 2°54.484 14.631588 0.020586 0.114323  
2002-03-01 08:07:35 51°16.271 2°54.482 14.671206 0.020586 0.114322  
2002-03-01 08:07:39 51°16.272 2°54.481 14.743647 0.020586 0.114327  
2002-03-01 08:07:45 51°16.272 2°54.479 14.743647 0.020586 0.114327  
2002-03-01 08:07:49 51°16.272 2°54.478 14.713291 0.020586 0.114332  
2002-03-01 08:07:54 51°16.273 2°54.477 14.680385 0.020586 0.114341  
2002-03-01 08:07:59 51°16.274 2°54.475 14.749892 0.020586 0.114348  
2002-03-01 08:08:05 51°16.274 2°54.474 14.686854 0.020586 0.114351  
2002-03-01 08:08:09 51°16.275 2°54.473 14.655116 0.020586 0.114355  
2002-03-01 08:08:14 51°16.275 2°54.471 14.833764 0.020586 0.114358  
2002-03-01 08:08:19 51°16.276 2°54.47 14.833764 0.020586 0.114358  
2002-03-01 08:08:23 51°16.276 2°54.468 14.658046 0.020586 0.114361  
2002-03-01 08:08:29 51°16.277 2°54.466 14.622139 0.020586 0.114363  
2002-03-01 08:08:34 51°16.277 2°54.465 14.627563 0.020586 0.114367  
2002-03-01 08:08:39 51°16.278 2°54.463 14.734957 0.020586 0.11437  
2002-03-01 08:08:45 51°16.278 2°54.461 14.628613 0.020586 0.114372  
2002-03-01 08:08:49 51°16.278 2°54.46 14.628613 0.020586 0.114372  
2002-03-01 08:08:54 51°16.279 2°54.458 14.739149 0.020586 0.114375  
2002-03-01 08:08:59 51°16.279 2°54.456 14.668845 0.020586 0.114377  
2002-03-01 08:09:05 51°16.28 2°54.455 14.672823 0.020586 0.114379  
2002-03-01 08:09:09 51°16.28 2°54.453 14.708354 0.020586 0.114382  
2002-03-01 08:09:14 51°16.281 2°54.451 14.636486 0.020586 0.114384  
2002-03-01 08:09:19 51°16.281 2°54.45 14.636486 0.020586 0.114384  
2002-03-01 08:09:25 51°16.281 2°54.447 14.747621 0.020586 0.114387  
2002-03-01 08:09:29 51°16.282 2°54.446 14.715694 0.020586 0.114387  
2002-03-01 08:09:34 51°16.282 2°54.444 14.71482 0.020586 0.114391  
2002-03-01 08:09:39 51°16.283 2°54.443 14.681784 0.020586 0.114392  
2002-03-01 08:09:45 51°16.283 2°54.44 14.684887 0.020586 0.114394  
2002-03-01 08:09:49 51°16.283 2°54.438 14.684887 0.020586 0.114394  
2002-03-01 08:09:54 51°16.284 2°54.437 14.756223 0.020586 0.114396  
2002-03-01 08:09:59 51°16.284 2°54.435 14.653061 0.020586 0.114396  
2002-03-01 08:10:05 51°16.284 2°54.432 14.65293 0.020586 0.114399  
2002-03-01 08:10:10 51°16.284 2°54.431 14.690044 0.020586 0.114399  
2002-03-01 08:10:15 51°16.285 2°54.428 14.69306 0.020586 0.114403  
2002-03-01 08:10:20 51°16.285 2°54.426 14.69306 0.020586 0.114403  
2002-03-01 08:10:25 51°16.285 2°54.424 14.72561 0.020586 0.114405  
2002-03-01 08:10:30 51°16.286 2°54.423 14.730196 0.020586 0.114406  
2002-03-01 08:10:35 51°16.286 2°54.42 14.732467 0.020586 0.114408  
2002-03-01 08:10:39 51°16.286 2°54.419 14.728842 0.020586 0.114411  
2002-03-01 08:10:45 51°16.286 2°54.416 14.697517 0.020586 0.114413  
2002-03-01 08:10:50 51°16.287 2°54.414 14.697517 0.020586 0.114413  
2002-03-01 08:10:55 51°16.287 2°54.412 14.702848 0.020586 0.114411  
2002-03-01 08:11:00 51°16.287 2°54.41 14.670637 0.020586 0.114417  
2002-03-01 08:11:05 51°16.287 2°54.408 14.672823 0.020586 0.114418  
2002-03-01 08:11:10 51°16.288 2°54.406 14.674615 0.020586 0.11442  
2002-03-01 08:11:15 51°16.288 2°54.404 14.674615 0.020586 0.11442  
2002-03-01 08:11:19 51°16.288 2°54.402 14.710189 0.020586 0.114422  
2002-03-01 08:11:25 51°16.288 2°54.399 14.778443 0.020586 0.114425  
2002-03-01 08:11:30 51°16.288 2°54.397 14.748582 0.020586 0.114427  
2002-03-01 08:11:35 51°16.289 2°54.395 14.703941 0.020586 0.114431  
2002-03-01 08:11:40 51°16.289 2°54.393 14.752555 0.020586 0.114431  
2002-03-01 08:11:45 51°16.289 2°54.391 14.82539 0.020586 0.114432  
2002-03-01 08:11:50 51°16.289 2°54.388 14.82539 0.020586 0.114432  
2002-03-01 08:11:55 51°16.289 2°54.386 14.688996 0.020586 0.114437  
2002-03-01 08:12:00 51°16.289 2°54.384 14.724299 0.020586 0.114437  
2002-03-01 08:12:05 51°16.29 2°54.382 14.749892 0.020586 0.114441  
2002-03-01 08:12:10 51°16.29 2°54.38 14.76395 0.020586 0.114443  
2002-03-01 08:12:15 51°16.29 2°54.378 14.689957 0.020586 0.114444  
2002-03-01 08:12:20 51°16.29 2°54.377 14.689957 0.020586 0.114444  
2002-03-01 08:12:25 51°16.29 2°54.374 14.760938 0.020586 0.114448  
2002-03-01 08:12:30 51°16.29 2°54.373 14.803011 0.020586 0.114451  
2002-03-01 08:12:35 51°16.29 2°54.37 14.838866 0.020586 0.114453  
2002-03-01 08:12:39 51°16.29 2°54.369 14.769276 0.020586 0.114453  
2002-03-01 08:12:45 51°16.29 2°54.366 14.735568 0.020586 0.114456  
2002-03-01 08:12:50 51°16.29 2°54.365 14.735568 0.020586 0.114456  
2002-03-01 08:12:55 51°16.29 2°54.362 14.699833 0.020586 0.114458  
2002-03-01 08:13:00 51°16.291 2°54.36 14.739979 0.020586 0.114463  
2002-03-01 08:13:05 51°16.291 2°54.358 14.847543 0.020586 0.114465  
2002-03-01 08:13:10 51°16.291 2°54.356 14.743036 0.020586 0.11447  
2002-03-01 08:13:15 51°16.291 2°54.354 14.748975 0.020586 0.11447  
2002-03-01 08:13:20 51°16.291 2°54.352 14.748975 0.020586 0.11447  
2002-03-01 08:13:25 51°16.291 2°54.35 14.77351 0.020586 0.114474  
2002-03-01 08:13:30 51°16.291 2°54.348 14.784771 0.020586 0.114477  
2002-03-01 08:13:35 51°16.291 2°54.346 14.780887 0.020586 0.114479  
2002-03-01 08:13:40 51°16.291 2°54.344 14.710626 0.020586 0.114482  
2002-03-01 08:13:45 51°16.291 2°54.342 14.710626 0.020586 0.114482  
2002-03-01 08:13:50 51°16.291 2°54.339 14.790531 0.020586 0.114486  
2002-03-01 08:13:55 51°16.291 2°54.337 14.759235 0.020586 0.114488  
2002-03-01 08:14:00 51°16.291 2°54.335 14.71565 0.020586 0.114491  
2002-03-01 08:14:05 51°16.291 2°54.333 14.761986 0.020586 0.114493  
2002-03-01 08:14:10 51°16.291 2°54.33 14.797164 0.020586 0.114496  
2002-03-01 08:14:15 51°16.291 2°54.328 14.727313 0.020586 0.1145  
2002-03-01 08:14:20 51°16.291 2°54.326 14.727313 0.020586 0.1145  
2002-03-01 08:14:25 51°16.291 2°54.323 14.772201 0.020586 0.114501  
2002-03-01 08:14:30 51°16.291 2°54.321 14.770891 0.020586 0.114505  
2002-03-01 08:14:35 51°16.291 2°54.319 14.735743 0.020586 0.114507  
2002-03-01 08:14:40 51°16.291 2°54.317 14.734083 0.020586 0.114512  
2002-03-01 08:14:45 51°16.291 2°54.314 14.734083 0.020586 0.114512  
2002-03-01 08:14:50 51°16.291 2°54.312 14.848372 0.020586 0.114512  
2002-03-01 08:14:55 51°16.291 2°54.31 14.816622 0.020586 0.114519  
2002-03-01 08:15:00 51°16.291 2°54.307 14.854475 0.020586 0.11452  
2002-03-01 08:15:05 51°16.291 2°54.305 14.786167 0.020586 0.114526  
2002-03-01 08:15:10 51°16.291 2°54.303 14.78368 0.020586 0.114526  
2002-03-01 08:15:15 51°16.291 2°54.3 14.790139 0.020586 0.114533  
2002-03-01 08:15:19 51°16.291 2°54.299 14.790139 0.020586 0.114533  
2002-03-01 08:15:25 51°16.29 2°54.296 14.755437 0.020586 0.114536  
2002-03-01 08:15:30 51°16.29 2°54.294 14.790226 0.020586 0.114538  
2002-03-01 08:15:35 51°16.29 2°54.291 14.831409 0.020586 0.114541  
2002-03-01 08:15:40 51°16.291 2°54.289 14.795506 0.020586 0.114545  
2002-03-01 08:15:45 51°16.291 2°54.286 14.834287 0.020586 0.114548  
2002-03-01 08:15:50 51°16.29 2°54.284 14.834287 0.020586 0.114548  
2002-03-01 08:15:55 51°16.29 2°54.281 14.766264 0.020586 0.114552  
2002-03-01 08:16:00 51°16.29 2°54.279 14.80624 0.020586 0.114553  
2002-03-01 08:16:05 51°16.29 2°54.277 14.80685 0.020586 0.114555  
2002-03-01 08:16:10 51°16.29 2°54.275 14.835203 0.020586 0.11456  
2002-03-01 08:16:15 51°16.29 2°54.273 14.878101 0.020586 0.114564  
2002-03-01 08:16:20 51°16.289 2°54.27 14.878101 0.020586 0.114564  
2002-03-01 08:16:25 51°16.289 2°54.268 14.813743 0.020586 0.114567  
2002-03-01 08:16:30 51°16.289 2°54.266 14.777875 0.020586 0.114569  
2002-03-01 08:16:35 51°16.289 2°54.263 14.819894 0.020586 0.114572  
2002-03-01 08:16:39 51°16.289 2°54.261 14.786211 0.020586 0.114576  
2002-03-01 08:16:45 51°16.289 2°54.258 14.781978 0.020586 0.114579  
2002-03-01 08:16:49 51°16.288 2°54.257 14.781978 0.020586 0.114579  
2002-03-01 08:16:55 51°16.288 2°54.254 14.858094 0.020586 0.114583  
2002-03-01 08:17:00 51°16.288 2°54.252 14.826916 0.020586 0.114585  
2002-03-01 08:17:05 51°16.288 2°54.249 14.93874 0.020586 0.114588  
2002-03-01 08:17:10 51°16.288 2°54.247 14.869864 0.020586 0.11459  
2002-03-01 08:17:15 51°16.287 2°54.245 14.800219 0.020586 0.114593  
2002-03-01 08:17:20 51°16.287 2°54.242 14.800219 0.020586 0.114593  
2002-03-01 08:17:25 51°16.287 2°54.24 14.836729 0.020586 0.114598  
2002-03-01 08:17:30 51°16.287 2°54.237 14.805498 0.020586 0.114602  
2002-03-01 08:17:35 51°16.287 2°54.235 14.878101 0.020586 0.114604  
2002-03-01 08:17:40 51°16.287 2°54.231 14.846802 0.020586 0.114605  
2002-03-01 08:17:45 51°16.287 2°54.229 14.846802 0.020586 0.114605  
2002-03-01 08:17:50 51°16.286 2°54.227 14.883156 0.020586 0.114609  
2002-03-01 08:17:55 51°16.286 2°54.224 14.848502 0.020586 0.114614  
2002-03-01 08:18:00 51°16.286 2°54.222 14.922976 0.020586 0.114616  
2002-03-01 08:18:05 51°16.286 2°54.219 14.82081 0.020586 0.114619  
2002-03-01 08:18:10 51°16.286 2°54.217 14.928942 0.020586 0.114621  
2002-03-01 08:18:15 51°16.285 2°54.214 14.928942 0.020586 0.114621  
2002-03-01 08:18:20 51°16.285 2°54.212 14.861669 0.020586 0.114623  
2002-03-01 08:18:25 51°16.285 2°54.209 14.866028 0.020586 0.114626  
2002-03-01 08:18:30 51°16.285 2°54.207 14.828748 0.020586 0.114631  
2002-03-01 08:18:35 51°16.284 2°54.204 14.972391 0.020586 0.114633  
2002-03-01 08:18:40 51°16.284 2°54.202 14.904289 0.020586 0.114635  
2002-03-01 08:18:45 51°16.284 2°54.199 14.904289 0.020586 0.114635  
2002-03-01 08:18:50 51°16.284 2°54.197 14.980268 0.020586 0.11464  
2002-03-01 08:18:55 51°16.284 2°54.194 14.908994 0.020586 0.114642  
2002-03-01 08:19:00 51°16.283 2°54.192 14.842398 0.020586 0.114645  
2002-03-01 08:19:05 51°16.283 2°54.189 14.881108 0.020586 0.114649  
2002-03-01 08:19:10 51°16.283 2°54.187 14.954936 0.020586 0.114651  
2002-03-01 08:19:15 51°16.283 2°54.184 14.920842 0.020586 0.114652  
2002-03-01 08:19:19 51°16.282 2°54.182 14.920842 0.020586 0.114652  
2002-03-01 08:19:25 51°16.282 2°54.18 14.96164 0.020586 0.114659  
2002-03-01 08:19:30 51°16.282 2°54.177 14.962902 0.020586 0.114663  
2002-03-01 08:19:35 51°16.282 2°54.174 14.966863 0.020586 0.114664  
2002-03-01 08:19:40 51°16.281 2°54.172 14.933079 0.020586 0.114666  
2002-03-01 08:19:45 51°16.281 2°54.17 14.900194 0.020586 0.114671  
2002-03-01 08:19:50 51°16.281 2°54.167 14.900194 0.020586 0.114671  
2002-03-01 08:19:55 51°16.281 2°54.165 14.938218 0.020586 0.114673  
2002-03-01 08:20:00 51°16.28 2°54.162 15.011505 0.020586 0.114675  
2002-03-01 08:20:05 51°16.28 2°54.16 14.907818 0.020586 0.114678  
2002-03-01 08:20:10 51°16.28 2°54.158 14.871389 0.020586 0.114682  
2002-03-01 08:20:15 51°16.28 2°54.155 14.947361 0.020586 0.114687  
2002-03-01 08:20:20 51°16.279 2°54.153 14.947361 0.020586 0.114687  
2002-03-01 08:20:25 51°16.279 2°54.15 14.951193 0.020586 0.114689  
2002-03-01 08:20:30 51°16.279 2°54.148 14.955764 0.020586 0.114692  
2002-03-01 08:20:35 51°16.279 2°54.146 14.886207 0.020586 0.114696  
2002-03-01 08:20:40 51°16.278 2°54.143 14.958637 0.020586 0.114701  
2002-03-01 08:20:45 51°16.278 2°54.141 14.892743 0.020586 0.114703  
2002-03-01 08:20:50 51°16.278 2°54.138 14.892743 0.020586 0.114703  
2002-03-01 08:20:55 51°16.278 2°54.136 14.895314 0.020586 0.114706  
2002-03-01 08:21:00 51°16.278 2°54.134 14.935039 0.020586 0.11471  
2002-03-01 08:21:05 51°16.277 2°54.132 14.899976 0.020586 0.114711  
2002-03-01 08:21:10 51°16.277 2°54.129 14.940351 0.020488 0.114173  
2002-03-01 08:21:15 51°16.277 2°54.127 14.940351 0.020488 0.114173  
2002-03-01 08:21:20 51°16.277 2°54.124 15.008635 0.020488 0.114175  
2002-03-01 08:21:24 51°16.276 2°54.123 14.94353 0.020586 0.114722  
2002-03-01 08:21:30 51°16.276 2°54.12 15.054814 0.020586 0.114725  
2002-03-01 08:21:35 51°16.276 2°54.117 14.913568 0.020586 0.114729  
2002-03-01 08:21:39 51°16.276 2°54.115 8.016155 0.020586 0.114854  
2002-03-01 08:21:45 51°16.275 2°54.112 8.016155 0.020586 0.114854  
2002-03-01 08:21:50 51°16.275 2°54.11 7.774088 0.020488 0.114446  
2002-03-01 08:21:55 51°16.275 2°54.108 7.724944 1.888909 13.191382  
2002-03-01 08:22:00 51°16.275 2°54.105 7.695691 3.837712 29.730731  
2002-03-01 08:22:05 51°16.274 2°54.103 7.683151 3.749839 30.288776  
2002-03-01 08:22:10 51°16.274 2°54.101 7.673184 3.854404 33.41912  
2002-03-01 08:22:15 51°16.274 2°54.098 7.673184 3.854404 33.41912  
2002-03-01 08:22:19 51°16.274 2°54.096 7.662925 3.781764 34.458319  
2002-03-01 08:22:25 51°16.273 2°54.093 7.655338 3.575544 33.191328  
2002-03-01 08:22:30 51°16.273 2°54.091 7.659521 3.597192 33.849512  
2002-03-01 08:22:35 51°16.273 2°54.088 7.656943 3.502813 33.049547  
2002-03-01 08:22:40 51°16.272 2°54.086 7.65777 3.475264 32.897606  
2002-03-01 08:22:45 51°16.272 2°54.084 7.662633 3.736285 35.675724  
2002-03-01 08:22:50 51°16.272 2°54.082 7.662633 3.736285 35.675724  
2002-03-01 08:22:55 51°16.272 2°54.079 7.707404 3.434292 32.647356  
2002-03-01 08:23:00 51°16.272 2°54.077 7.666718 3.419868 32.542255  
2002-03-01 08:23:05 51°16.271 2°54.074 7.666912 3.417063 32.546651  
2002-03-01 08:23:10 51°16.271 2°54.072 7.706918 3.402438 32.407502  
2002-03-01 08:23:15 51°16.271 2°54.069 7.667496 3.394525 32.333874  
2002-03-01 08:23:20 51°16.271 2°54.067 7.667496 3.394525 32.333874  
2002-03-01 08:23:25 51°16.27 2°54.065 7.665599 3.398832 32.396368  
2002-03-01 08:23:30 51°16.27 2°54.063 7.704682 3.388314 32.289761  
2002-03-01 08:23:35 51°16.27 2°54.06 7.698656 3.390017 32.327016  
2002-03-01 08:23:40 51°16.27 2°54.058 7.695837 3.38561 32.278079  
2002-03-01 08:23:45 51°16.269 2°54.056 7.654852 3.392622 32.365374  
2002-03-01 08:23:50 51°16.269 2°54.053 7.654852 3.392622 32.365374  
2002-03-01 08:23:55 51°16.269 2°54.051 7.654512 3.38581 32.298672  
2002-03-01 08:23:59 51°16.269 2°54.049 7.654609 3.39112 32.366447  
2002-03-01 08:24:05 51°16.268 2°54.046 7.694136 3.386512 32.319967  
2002-03-01 08:24:10 51°16.268 2°54.044 7.693845 3.382004 32.285335  
2002-03-01 08:24:15 51°16.268 2°54.041 7.694719 3.385911 32.330573  
2002-03-01 08:24:20 51°16.268 2°54.039 7.694719 3.385911 32.330573  
2002-03-01 08:24:25 51°16.268 2°54.037 7.654512 3.382105 32.296418  
2002-03-01 08:24:29 51°16.267 2°54.035 7.657527 3.386612 32.348812  
2002-03-01 08:24:35 51°16.267 2°54.032 7.698608 3.378599 32.267752  
2002-03-01 08:24:40 51°16.267 2°54.03 7.70303 3.389718 32.391007  
2002-03-01 08:24:45 51°16.267 2°54.027 7.664724 3.376195 32.250754  
2002-03-01 08:24:50 51°16.267 2°54.025 7.664724 3.376195 32.250754  
2002-03-01 08:24:55 51°16.267 2°54.023 7.663703 3.392422 32.428207  
2002-03-01 08:25:00 51°16.266 2°54.02 7.698024 3.392823 32.431682  
2002-03-01 08:25:05 51°16.266 2°54.018 7.697441 3.392723 32.430619  
2002-03-01 08:25:10 51°16.266 2°54.015 7.696809 3.385911 32.361475  
2002-03-01 08:25:15 51°16.267 2°54.011 7.696809 3.385911 32.361475  
2002-03-01 08:25:20 51°16.269 2°54.005 7.697004 3.384208 32.342645  
2002-03-01 08:25:25 51°16.273 2°53.997 7.65743 3.378599 32.287802  
2002-03-01 08:25:30 51°16.278 2°53.988 7.695254 3.390519 32.413442  
2002-03-01 08:25:35 51°16.284 2°53.976 7.695546 3.393023 32.443885  
2002-03-01 08:25:40 51°16.291 2°53.964 7.693358 3.392623 32.444287  
2002-03-01 08:25:45 51°16.3 2°53.949 7.693358 3.392623 32.444287  
2002-03-01 08:25:50 51°16.31 2°53.933 7.653393 3.387013 32.385543  
2002-03-01 08:25:55 51°16.32 2°53.916 7.653053 3.390419 32.424003  
2002-03-01 08:26:00 51°16.332 2°53.898 7.692872 3.39072 32.431845  
2002-03-01 08:26:05 51°16.344 2°53.881 7.654366 3.396029 32.488975  
2002-03-01 08:26:10 51°16.356 2°53.864 7.65811 3.393324 32.464922  
2002-03-01 08:26:15 51°16.369 2°53.846 7.700211 3.388015 32.411668  
2002-03-01 08:26:19 51°16.379 2°53.831 7.700211 3.388015 32.411668  
2002-03-01 08:26:25 51°16.395 2°53.807 7.739419 3.390219 32.436613  
2002-03-01 08:26:30 51°16.407 2°53.787 7.700843 3.393124 32.469785  
2002-03-01 08:26:35 51°16.42 2°53.767 7.703808 3.39643 32.505666  
2002-03-01 08:26:39 51°16.431 2°53.75 7.706675 3.395127 32.493391  
2002-03-01 08:26:45 51°16.446 2°53.725 7.669732 3.394526 32.487786  
2002-03-01 08:26:50 51°16.46 2°53.704 7.669732 3.394526 32.487786  
2002-03-01 08:26:55 51°16.473 2°53.684 7.672844 3.400136 32.545032  
2002-03-01 08:26:59 51°16.484 2°53.668 7.677511 3.399335 32.53652  
2002-03-01 08:27:05 51°16.501 2°53.644 7.680234 3.399835 32.542619  
2002-03-01 08:27:10 51°16.514 2°53.624 7.724118 3.400937 32.555103  
2002-03-01 08:27:15 51°16.527 2°53.603 7.726887 3.403842 32.583626  
2002-03-01 08:27:20 51°16.541 2°53.583 7.726887 3.403842 32.583626  
2002-03-01 08:27:25 51°16.554 2°53.562 7.687574 3.403442 32.57781  
2002-03-01 08:27:29 51°16.566 2°53.546 7.767486 3.405746 32.599947  
2002-03-01 08:27:35 51°16.583 2°53.523 8.672726 3.411355 32.657985  
2002-03-01 08:27:40 51°16.598 2°53.505 8.675359 3.403341 32.567397  
2002-03-01 08:27:45 51°16.612 2°53.486 8.62364 3.413459 32.673304  
2002-03-01 08:27:50 51°16.627 2°53.468 8.62364 3.413459 32.673304  
2002-03-01 08:27:55 51°16.641 2°53.448 9.22722 3.412657 32.66479  
2002-03-01 08:28:00 51°16.655 2°53.429 8.916358 3.418768 32.7305  
2002-03-01 08:28:05 51°16.67 2°53.409 8.877192 3.41416 32.684663  
2002-03-01 08:28:10 51°16.684 2°53.391 8.877956 3.417566 32.720856  
2002-03-01 08:28:15 51°16.698 2°53.373 8.805813 3.421473 32.766298  
2002-03-01 08:28:20 51°16.713 2°53.354 8.805813 3.421473 32.766298  
2002-03-01 08:28:25 51°16.727 2°53.335 8.922748 3.419269 32.745221  
2002-03-01 08:28:30 51°16.74 2°53.315 8.646632 3.416765 32.714687  
2002-03-01 08:28:35 51°16.754 2°53.294 8.998334 3.413659 32.682468  
2002-03-01 08:28:39 51°16.765 2°53.278 8.76744 3.409051 32.633505  
2002-03-01 08:28:45 51°16.782 2°53.256 8.76744 3.409051 32.633505  
2002-03-01 08:28:50 51°16.796 2°53.236 8.934383 3.405245 32.592287  
2002-03-01 08:28:55 51°16.809 2°53.217 8.50117 3.420671 32.756212  
2002-03-01 08:29:00 51°16.823 2°53.197 9.008621 3.41977 32.747412  
2002-03-01 08:29:05 51°16.836 2°53.177 8.578496 3.421874 32.770558  
2002-03-01 08:29:10 51°16.85 2°53.158 8.50021 3.421773 32.768709  
2002-03-01 08:29:15 51°16.863 2°53.139 8.693068 3.419569 32.743716  
2002-03-01 08:29:20 51°16.876 2°53.122 8.693068 3.419569 32.743716  
2002-03-01 08:29:25 51°16.889 2°53.105 9.142017 3.419569 32.742149  
2002-03-01 08:29:30 51°16.901 2°53.087 8.632742 3.421172 32.759185  
2002-03-01 08:29:35 51°16.913 2°53.07 8.804714 3.425079 32.799146  
2002-03-01 08:29:40 51°16.925 2°53.054 9.024382 3.42578 32.808955  
2002-03-01 08:29:45 51°16.937 2°53.038 9.064125 3.424879 32.796232  
2002-03-01 08:29:50 51°16.95 2°53.022 9.064125 3.424879 32.796232  
2002-03-01 08:29:55 51°16.963 2°53.007 8.470924 3.42578 32.801894  
2002-03-01 08:29:59 51°16.973 2°52.995 8.659848 3.428986 32.832829  
2002-03-01 08:30:05 51°16.988 2°52.976 9.158933 3.43129 32.851823  
2002-03-01 08:30:10 51°17.001 2°52.959 8.892842 3.430488 32.833101  
2002-03-01 08:30:15 51°17.014 2°52.944 8.774706 3.433093 32.849786  
2002-03-01 08:30:20 51°17.027 2°52.928 8.774706 3.433093 32.849786  
2002-03-01 08:30:25 51°17.041 2°52.912 8.697183 3.430789 32.820606  
2002-03-01 08:30:30 51°17.055 2°52.897 8.663008 3.433393 32.849839  
2002-03-01 08:30:35 51°17.069 2°52.882 8.617173 3.435898 32.880371  
2002-03-01 08:30:40 51°17.084 2°52.868 9.009478 3.438001 32.903509  
2002-03-01 08:30:45 51°17.099 2°52.855 8.659848 3.433894 32.85987  
2002-03-01 08:30:49 51°17.111 2°52.844 8.659848 3.433894 32.85987  
2002-03-01 08:30:55 51°17.13 2°52.827 8.816704 3.435998 32.883006  
2002-03-01 08:31:00 51°17.145 2°52.813 8.966271 3.44281 32.955398  
2002-03-01 08:31:05 51°17.161 2°52.8 8.734402 3.439204 32.916284  
2002-03-01 08:31:10 51°17.177 2°52.788 8.619329 3.441608 32.944983  
2002-03-01 08:31:15 51°17.193 2°52.777 8.936528 3.438603 32.913042  
2002-03-01 08:31:20 51°17.209 2°52.766 8.936528 3.438603 32.913042  
2002-03-01 08:31:25 51°17.225 2°52.756 9.052276 3.44261 32.956418  
2002-03-01 08:31:30 51°17.241 2°52.747 8.815557 3.443311 32.963085  
2002-03-01 08:31:35 51°17.257 2°52.738 8.893844 3.446016 32.994991  
2002-03-01 08:31:40 51°17.273 2°52.728 8.812787 3.446817 33.000358  
2002-03-01 08:31:45 51°17.289 2°52.716 8.969177 3.444814 32.979846  
2002-03-01 08:31:50 51°17.304 2°52.703 8.969177 3.444814 32.979846  
2002-03-01 08:31:55 51°17.318 2°52.687 8.968415 3.444112 32.972392  
2002-03-01 08:32:00 51°17.331 2°52.668 8.852087 3.446116 32.993691  
2002-03-01 08:32:05 51°17.343 2°52.647 8.929424 3.443712 32.969708  
2002-03-01 08:32:10 51°17.353 2°52.624 8.49997 3.438302 32.912208  
2002-03-01 08:32:14 51°17.36 2°52.604 8.85476 3.44842 33.022923  
2002-03-01 08:32:20 51°17.37 2°52.574 8.85476 3.44842 33.022923  
2002-03-01 08:32:25 51°17.377 2°52.547 8.699241 3.44832 33.024225  
2002-03-01 08:32:29 51°17.383 2°52.526 8.856861 3.44832 33.025015  
2002-03-01 08:32:35 51°17.391 2°52.493 8.935908 3.44812 33.025252  
2002-03-01 08:32:40 51°17.397 2°52.465 8.782257 3.450223 33.048418  
2002-03-01 08:32:45 51°17.403 2°52.436 8.782257 3.450223 33.048418  
2002-03-01 08:32:50 51°17.408 2°52.408 8.587173 3.44812 33.026831  
2002-03-01 08:32:55 51°17.412 2°52.379 8.979469 3.447018 33.015111  
2002-03-01 08:32:59 51°17.416 2°52.355 8.939722 3.449422 33.038314  
2002-03-01 08:33:05 51°17.42 2°52.319 8.821241 3.449823 33.040996  
2002-03-01 08:33:10 51°17.422 2°52.289 8.981709 3.450424 33.045809  
2002-03-01 08:33:15 51°17.424 2°52.259 9.023477 3.450123 33.040244  
2002-03-01 08:33:20 51°17.426 2°52.229 9.023477 3.450123 33.040244  
2002-03-01 08:33:25 51°17.427 2°52.198 9.063792 3.44852 33.02241  
2002-03-01 08:33:30 51°17.428 2°52.167 8.945776 3.445515 32.992031  
2002-03-01 08:33:35 51°17.43 2°52.137 8.714886 3.441307 32.945725  
2002-03-01 08:33:40 51°17.433 2°52.107 8.753577 3.449622 33.034128  
2002-03-01 08:33:45 51°17.434 2°52.076 8.987664 3.445815 32.992861  
2002-03-01 08:33:50 51°17.436 2°52.046 8.987664 3.445815 32.992861  
2002-03-01 08:33:54 51°17.437 2°52.021 8.595944 3.449622 33.03097  
2002-03-01 08:33:59 51°17.436 2°51.99 8.792722 3.450424 33.038702  
2002-03-01 08:34:05 51°17.433 2°51.954 8.830984 3.448921 33.024303  
2002-03-01 08:34:09 51°17.429 2°51.93 8.715173 3.452628 33.060558  
2002-03-01 08:34:15 51°17.421 2°51.896 9.027572 3.446116 32.990538  
2002-03-01 08:34:20 51°17.412 2°51.869 9.027572 3.446116 32.990538  
2002-03-01 08:34:25 51°17.401 2°51.843 8.950448 3.453529 33.070145  
2002-03-01 08:34:30 51°17.389 2°51.819 8.951973 3.449823 33.032311  
2002-03-01 08:34:35 51°17.375 2°51.797 8.482544 3.451626 33.050695  
2002-03-01 08:34:39 51°17.363 2°51.781 8.718092 3.452227 33.058667  
2002-03-01 08:34:45 51°17.344 2°51.762 8.601264 3.451425 33.051724  
2002-03-01 08:34:50 51°17.327 2°51.75 8.601264 3.451425 33.051724  
2002-03-01 08:34:55 51°17.308 2°51.742 8.601887 3.452427 33.062377  
2002-03-01 08:34:59 51°17.293 2°51.736 8.878147 3.455232 33.09221  
2002-03-01 08:35:05 51°17.27 2°51.733 8.918075 3.448921 33.023514  
2002-03-01 08:35:09 51°17.254 2°51.733 9.073831 3.452928 33.066914  
2002-03-01 08:35:15 51°17.232 2°51.736 8.958598 3.454932 33.088223  
2002-03-01 08:35:19 51°17.217 2°51.739 8.958598 3.454932 33.088223  
2002-03-01 08:35:25 51°17.195 2°51.746 8.723975 3.456134 33.098636  
2002-03-01 08:35:29 51°17.18 2°51.752 8.685506 3.455733 33.097538  
2002-03-01 08:35:35 51°17.158 2°51.763 8.803567 3.452327 33.058152  
2002-03-01 08:35:39 51°17.144 2°51.773 8.802516 3.455332 33.089322  
2002-03-01 08:35:45 51°17.122 2°51.788 8.567277 3.456935 33.106369  
2002-03-01 08:35:49 51°17.108 2°51.798 8.567277 3.456935 33.106369  
2002-03-01 08:35:55 51°17.088 2°51.814 8.606679 3.458839 33.123448  
2002-03-01 08:35:59 51°17.074 2°51.824 8.49013 3.457737 33.110937  
2002-03-01 08:36:05 51°17.054 2°51.841 8.529243 3.458438 33.116812  
2002-03-01 08:36:09 51°17.04 2°51.852 8.684932 3.459039 33.123204  
2002-03-01 08:36:15 51°17.02 2°51.869 8.684932 3.459039 33.123204  
2002-03-01 08:36:19 51°17.006 2°51.88 8.56512 3.452928 33.059014  
2002-03-01 08:36:25 51°16.985 2°51.897 8.841918 3.459239 33.125335  
2002-03-01 08:36:29 51°16.971 2°51.909 8.370003 3.45954 33.12774  
2002-03-01 08:36:35 51°16.951 2°51.926 8.526604 3.460041 33.133859  
2002-03-01 08:36:39 51°16.938 2°51.937 8.802277 3.458238 33.11389  
2002-03-01 08:36:45 51°16.917 2°51.954 8.802277 3.458238 33.11389  
2002-03-01 08:36:49 51°16.904 2°51.967 8.605673 3.45944 33.126675  
2002-03-01 08:36:55 51°16.883 2°51.986 8.605098 3.455933 33.09097  
2002-03-01 08:36:59 51°16.869 2°51.997 9.07502 3.458037 33.112551  
2002-03-01 08:37:05 51°16.849 2°52.015 8.916215 3.45934 33.127192  
2002-03-01 08:37:09 51°16.836 2°52.027 9.111499 3.458538 33.116295  
2002-03-01 08:37:15 51°16.817 2°52.045 8.838337 3.458638 33.119734  
2002-03-01 08:37:19 51°16.803 2°52.057 8.838337 3.458638 33.119734  
2002-03-01 08:37:25 51°16.783 2°52.075 8.603612 3.458638 33.119734  
2002-03-01 08:37:29 51°16.769 2°52.087 8.720579 3.45393 33.070455  
2002-03-01 08:37:35 51°16.749 2°52.104 8.992284 3.457937 33.110694  
2002-03-01 08:37:39 51°16.736 2°52.115 8.955214 3.456034 33.092035  
2002-03-01 08:37:45 51°16.716 2°52.134 9.069501 3.456635 33.103172  
2002-03-01 08:37:49 51°16.703 2°52.146 9.069501 3.456635 33.103172  
2002-03-01 08:37:55 51°16.682 2°52.165 8.953355 3.453329 33.066434  
2002-03-01 08:37:59 51°16.668 2°52.177 8.717278 3.456134 33.096263  
2002-03-01 08:38:05 51°16.647 2°52.196 8.831461 3.453329 33.068015  
2002-03-01 08:38:09 51°16.633 2°52.209 9.144298 3.455032 33.086126  
2002-03-01 08:38:15 51°16.613 2°52.227 8.673396 3.454531 33.079218  
2002-03-01 08:38:19 51°16.6 2°52.239 8.673396 3.454531 33.079218  
2002-03-01 08:38:25 51°16.58 2°52.258 8.829694 3.453429 33.070661  
2002-03-01 08:38:29 51°16.566 2°52.271 8.477119 3.454431 33.081314  
2002-03-01 08:38:35 51°16.546 2°52.29 9.1433 3.453529 33.072516  
2002-03-01 08:38:39 51°16.532 2°52.303 8.750373 3.451626 33.053065  
2002-03-01 08:38:45 51°16.512 2°52.323 9.179788 3.451425 33.050934  
2002-03-01 08:38:49 51°16.499 2°52.337 9.179788 3.451425 33.050934  
2002-03-01 08:38:55 51°16.48 2°52.358 8.868459 3.451325 33.053028  
2002-03-01 08:38:59 51°16.467 2°52.372 8.864498 3.450824 33.048491  
2002-03-01 08:39:05 51°16.448 2°52.393 8.471837 3.450324 33.042374  
2002-03-01 08:39:09 51°16.434 2°52.407 8.745209 3.449222 33.031445  
2002-03-01 08:39:15 51°16.415 2°52.429 8.666838 3.449522 33.035431  
2002-03-01 08:39:19 51°16.402 2°52.443 8.666838 3.449522 33.035431  
2002-03-01 08:39:25 51°16.383 2°52.464 8.742914 3.449722 33.039931  
2002-03-01 08:39:29 51°16.37 2°52.477 8.896659 3.447919 33.020753  
2002-03-01 08:39:35 51°16.351 2°52.499 9.048849 3.44822 33.025528  
2002-03-01 08:39:39 51°16.338 2°52.514 8.414476 3.450524 33.049245  
2002-03-01 08:39:45 51°16.319 2°52.535 8.725171 3.44852 33.030304  
2002-03-01 08:39:49 51°16.306 2°52.547 8.725171 3.44852 33.030304  
2002-03-01 08:39:55 51°16.288 2°52.567 8.44494 3.448721 33.032435  
2002-03-01 08:39:59 51°16.275 2°52.58 8.868745 3.445715 33.003628  
2002-03-01 08:40:05 51°16.255 2°52.6 8.863639 3.447519 33.024386  
2002-03-01 08:40:09 51°16.242 2°52.613 8.860727 3.446617 33.017954  
2002-03-01 08:40:15 51°16.223 2°52.634 8.540852 3.444413 32.999245  
2002-03-01 08:40:19 51°16.21 2°52.648 8.540852 3.444413 32.999245  
2002-03-01 08:40:25 51°16.191 2°52.668 8.575812 3.44271 32.985862  
2002-03-01 08:40:29 51°16.179 2°52.682 8.73378 3.438002 32.941291  
2002-03-01 08:40:35 51°16.159 2°52.702 9.238373 3.435798 32.920209  
2002-03-01 08:40:39 51°16.146 2°52.716 8.848602 3.432793 32.894537  
2002-03-01 08:40:45 51°16.127 2°52.737 8.692111 3.43089 32.880583  
2002-03-01 08:40:49 51°16.115 2°52.75 8.692111 3.43089 32.880583  
2002-03-01 08:40:55 51°16.096 2°52.771 8.650271 3.424579 32.818157  
2002-03-01 08:40:59 51°16.083 2°52.785 9.00162 3.423577 32.811427  
2002-03-01 08:41:05 51°16.064 2°52.805 8.49205 3.423176 32.810306  
2002-03-01 08:41:10 51°16.048 2°52.822 8.686224 3.423577 32.815355  
2002-03-01 08:41:15 51°16.032 2°52.837 9.235241 3.422976 32.810531  
2002-03-01 08:41:19 51°16.02 2°52.851 9.235241 3.422976 32.810531  
2002-03-01 08:41:23 51°16.008 2°52.865 8.764716 3.421373 32.794262  
2002-03-01 08:41:29 51°15.989 2°52.886 8.882203 3.420872 32.789718  
2002-03-01 08:41:35 51°15.97 2°52.907 8.80352 3.41957 32.778217  
2002-03-01 08:41:39 51°15.958 2°52.921 8.605481 3.418167 32.764079  
2002-03-01 08:41:45 51°15.939 2°52.941 8.645674 3.413159 32.71236  
2002-03-01 08:41:49 51°15.926 2°52.953 8.645674 3.413159 32.71236  
2002-03-01 08:41:55 51°15.908 2°52.974 9.114352 3.415062 32.731825  
2002-03-01 08:41:59 51°15.896 2°52.988 8.880199 3.416264 32.746966  
2002-03-01 08:42:05 51°15.878 2°53.009 8.838146 3.413059 32.714429  
2002-03-01 08:42:10 51°15.863 2°53.026 8.682683 3.416064 32.745619  
2002-03-01 08:42:15 51°15.847 2°53.043 8.681869 3.409753 32.679262  
2002-03-01 08:42:19 51°15.835 2°53.057 8.681869 3.409753 32.679262  
2002-03-01 08:42:25 51°15.817 2°53.079 8.603037 3.412858 32.712297  
2002-03-01 08:42:29 51°15.805 2°53.094 8.913401 3.412558 32.7091  
2002-03-01 08:42:35 51°15.788 2°53.117 8.951973 3.411456 32.699727  
2002-03-01 08:42:39 51°15.776 2°53.131 8.638777 3.411756 32.701358  
2002-03-01 08:42:45 51°15.758 2°53.152 8.439944 3.411656 32.701859  
2002-03-01 08:42:50 51°15.743 2°53.169 8.439944 3.411656 32.701859  
2002-03-01 08:42:55 51°15.728 2°53.187 8.440088 3.410755 32.693833  
2002-03-01 08:43:00 51°15.712 2°53.205 8.712973 3.409352 32.67813  
2002-03-01 08:43:05 51°15.697 2°53.224 8.51576 3.407649 32.662362  
2002-03-01 08:43:09 51°15.685 2°53.238 8.397988 3.406948 32.65725  
2002-03-01 08:43:15 51°15.667 2°53.258 8.751999 3.402541 32.611145  
2002-03-01 08:43:20 51°15.652 2°53.276 8.751999 3.402541 32.611145  
2002-03-01 08:43:25 51°15.637 2°53.295 8.674785 3.405345 32.640981  
2002-03-01 08:43:29 51°15.626 2°53.309 8.741766 3.404344 32.630325  
2002-03-01 08:43:35 51°15.609 2°53.331 8.637915 3.401539 32.602834  
2002-03-01 08:43:39 51°15.597 2°53.345 8.676843 3.401639 32.602337  
2002-03-01 08:43:45 51°15.579 2°53.367 8.949733 3.400738 32.596653  
2002-03-01 08:43:49 51°15.567 2°53.382 8.949733 3.400738 32.596653  
2002-03-01 08:43:55 51°15.549 2°53.404 8.831652 3.400737 32.595872  
2002-03-01 08:43:59 51°15.537 2°53.419 8.750373 3.400036 32.586851  
2002-03-01 08:44:05 51°15.519 2°53.441 9.101846 3.398834 32.574847  
2002-03-01 08:44:09 51°15.508 2°53.456 8.628335 3.394427 32.527194  
2002-03-01 08:44:15 51°15.491 2°53.478 8.785984 3.395929 32.543172  
2002-03-01 08:44:19 51°15.479 2°53.492 8.785984 3.395929 32.543172  
2002-03-01 08:44:25 51°15.461 2°53.514 8.708906 3.39623 32.544808  
2002-03-01 08:44:29 51°15.449 2°53.528 8.902002 3.391822 32.498722  
2002-03-01 08:44:35 51°15.431 2°53.551 8.822578 3.392724 32.512202  
2002-03-01 08:44:39 51°15.42 2°53.566 9.114542 3.391321 32.498069  
2002-03-01 08:44:45 51°15.402 2°53.587 8.509137 3.388617 32.472424  
2002-03-01 08:44:49 51°15.391 2°53.602 8.509137 3.388617 32.472424  
2002-03-01 08:44:55 51°15.374 2°53.624 8.70393 3.388016 32.465256  
2002-03-01 08:44:59 51°15.362 2°53.639 8.938673 3.386113 32.445021  
2002-03-01 08:45:05 51°15.345 2°53.662 8.899807 3.386213 32.448418  
2002-03-01 08:45:09 51°15.333 2°53.677 8.7035 3.383909 32.425478  
2002-03-01 08:45:15 51°15.316 2°53.699 8.744062 3.38431 32.429738  
2002-03-01 08:45:20 51°15.302 2°53.718 8.744062 3.38431 32.429738  
2002-03-01 08:45:23 51°15.293 2°53.729 8.977421 3.382106 32.407862  
2002-03-01 08:45:29 51°15.276 2°53.752 8.66454 3.381305 32.400119  
2002-03-01 08:45:35 51°15.259 2°53.775 8.938435 3.381305 32.399343  
2002-03-01 08:45:39 51°15.248 2°53.789 8.549582 3.380904 32.395083  
2002-03-01 08:45:45 51°15.231 2°53.81 8.744636 3.380303 32.387918  
2002-03-01 08:45:49 51°15.219 2°53.824 8.744636 3.380303 32.387918  
2002-03-01 08:45:55 51°15.202 2°53.847 8.787466 3.380303 32.387142  
2002-03-01 08:45:59 51°15.19 2°53.862 9.018145 3.379501 32.378623  
2002-03-01 08:46:03 51°15.179 2°53.877 8.586454 3.379201 32.374653  
2002-03-01 08:46:09 51°15.162 2°53.9 8.940819 3.3786 32.365938  
2002-03-01 08:46:15 51°15.145 2°53.923 8.937672 3.3787 32.36933  
2002-03-01 08:46:19 51°15.134 2°53.939 8.937672 3.3787 32.36933  
2002-03-01 08:46:25 51°15.117 2°53.96 8.937672 3.377799 32.358972  
2002-03-01 08:46:29 51°15.107 2°53.975 8.861157 3.375395 32.333423  
2002-03-01 08:46:35 51°15.09 2°53.997 8.665067 3.376797 32.349102  
2002-03-01 08:46:39 51°15.079 2°54.012 8.861061 3.374894 32.328875  
2002-03-01 08:46:45 51°15.062 2°54.033 8.861061 3.374894 32.328875  
2002-03-01 08:46:49 51°15.051 2°54.048 8.900094 3.375194 32.332843  
2002-03-01 08:46:55 51°15.034 2°54.07 9.091812 3.374493 32.324617  
2002-03-01 08:46:59 51°15.024 2°54.086 9.128851 3.374293 32.321714  
2002-03-01 08:47:05 51°15.007 2°54.109 8.581133 3.373091 32.308941  
2002-03-01 08:47:09 51°14.997 2°54.125 8.579695 3.37249 32.304877  
2002-03-01 08:47:15 51°14.981 2°54.147 8.579695 3.37249 32.304877  
2002-03-01 08:47:19 51°14.971 2°54.161 8.97237 3.371388 32.291621  
2002-03-01 08:47:25 51°14.956 2°54.181 8.697327 3.370787 32.286782  
2002-03-01 08:47:29 51°14.946 2°54.194 8.809682 3.370586 32.286975  
2002-03-01 08:47:35 51°14.931 2°54.213 8.259047 3.369485 32.27604  
2002-03-01 08:47:39 51°14.921 2°54.226 8.844592 3.369986 32.282136  
2002-03-01 08:47:45 51°14.908 2°54.247 8.923177 3.368984 32.272265  
2002-03-01 08:47:50 51°14.897 2°54.263 8.923177 3.368984 32.272265  
2002-03-01 08:47:54 51°14.889 2°54.276 8.765002 3.368683 32.269072  
2002-03-01 08:47:59 51°14.879 2°54.291 8.880533 3.368383 32.266652  
2002-03-01 08:48:05 51°14.868 2°54.309 8.526748 3.367381 32.258328  
2002-03-01 08:48:09 51°14.861 2°54.321 9.075448 3.36688 32.254553  
2002-03-01 08:48:15 51°14.85 2°54.338 8.683496 3.36638 32.25155  
2002-03-01 08:48:19 51°14.843 2°54.348 8.683496 3.36638 32.25155  
2002-03-01 08:48:25 51°14.832 2°54.366 9.031999 3.364777 32.238383  
2002-03-01 08:48:29 51°14.825 2°54.376 8.564256 3.364476 32.237508  
2002-03-01 08:48:35 51°14.814 2°54.391 9.145581 3.364276 32.235379  
2002-03-01 08:48:39 51°14.807 2°54.401 8.720866 3.363675 32.229764  
2002-03-01 08:48:45 51°14.798 2°54.416 8.559509 3.362774 32.220956  
2002-03-01 08:48:49 51°14.791 2°54.425 8.559509 3.362774 32.220956  
2002-03-01 08:48:53 51°14.785 2°54.434 8.872659 3.362573 32.220372  
2002-03-01 08:48:59 51°14.776 2°54.447 8.674641 3.362674 32.221436  
2002-03-01 08:49:05 51°14.766 2°54.461 8.749895 3.361572 32.211271  
2002-03-01 08:49:09 51°14.76 2°54.469 8.948207 3.36067 32.204006  
2002-03-01 08:49:15 51°14.752 2°54.483 9.02362 3.36027 32.199748  
2002-03-01 08:49:20 51°14.744 2°54.493 9.02362 3.36027 32.199748  
2002-03-01 08:49:25 51°14.737 2°54.504 9.022097 3.359769 32.195969  
2002-03-01 08:49:29 51°14.732 2°54.512 8.669758 3.358567 32.183965  
2002-03-01 08:49:35 51°14.724 2°54.525 9.254457 3.358066 32.180186  
2002-03-01 08:49:40 51°14.717 2°54.534 8.786653 3.356964 32.168475  
2002-03-01 08:49:45 51°14.71 2°54.545 8.710389 3.356363 32.162859  
2002-03-01 08:49:49 51°14.705 2°54.553 8.710389 3.356363 32.162859  
2002-03-01 08:49:55 51°14.697 2°54.565 8.940294 3.355762 32.158786  
2002-03-01 08:49:59 51°14.691 2°54.572 8.586214 3.354861 32.149975  
2002-03-01 08:50:05 51°14.684 2°54.584 9.092382 3.35456 32.147553  
2002-03-01 08:50:09 51°14.678 2°54.592 9.405669 3.353058 32.133125  
2002-03-01 08:50:15 51°14.67 2°54.604 9.133842 3.352857 32.130225  
2002-03-01 08:50:19 51°14.665 2°54.611 9.133842 3.352857 32.130225  
2002-03-01 08:50:25 51°14.658 2°54.623 8.663822 3.352657 32.126555  
2002-03-01 08:50:29 51°14.652 2°54.631 9.092002 3.351155 32.113669  
2002-03-01 08:50:35 51°14.645 2°54.642 8.854665 3.349853 32.100601  
2002-03-01 08:50:39 51°14.64 2°54.65 8.935813 3.349652 32.099242  
2002-03-01 08:50:45 51°14.633 2°54.662 9.089624 3.348951 32.09333  
2002-03-01 08:50:49 51°14.628 2°54.67 9.089624 3.348951 32.09333  
2002-03-01 08:50:55 51°14.621 2°54.681 8.890218 3.34835 32.086943  
2002-03-01 08:50:59 51°14.616 2°54.689 8.731484 3.347749 32.081326  
2002-03-01 08:51:05 51°14.609 2°54.7 9.225844 3.347048 32.073875  
2002-03-01 08:51:09 51°14.605 2°54.708 9.024334 3.345946 32.063705  
2002-03-01 08:51:15 51°14.598 2°54.719 9.024334 3.345946 32.063705  
2002-03-01 08:51:19 51°14.593 2°54.725 8.466266 3.344945 32.052291  
2002-03-01 08:51:25 51°14.586 2°54.735 8.846215 3.344143 32.045314  
2002-03-01 08:51:29 51°14.581 2°54.741 8.954737 3.338334 31.98589  
2002-03-01 08:51:33 51°14.577 2°54.747 8.910969 3.322308 31.819502  
2002-03-01 08:51:39 51°14.571 2°54.756 8.664779 3.301575 31.604015  
2002-03-01 08:51:46 51°14.565 2°54.766 8.816322 3.270227 31.27842  
2002-03-01 08:51:50 51°14.562 2°54.771 8.816322 3.270227 31.27842  
2002-03-01 08:51:55 51°14.557 2°54.777 9.2332 3.243987 31.005751  
2002-03-01 08:52:00 51°14.553 2°54.784 9.027048 3.200525 30.557874  
2002-03-01 08:52:05 51°14.549 2°54.79 8.90763 3.170383 30.248264  
2002-03-01 08:52:09 51°14.546 2°54.794 8.768253 3.146752 30.007579  
2002-03-01 08:52:15 51°14.541 2°54.801 8.889312 3.124423 29.779326  
2002-03-01 08:52:19 51°14.538 2°54.805 8.889312 3.124423 29.779326  
2002-03-01 08:52:25 51°14.534 2°54.811 8.449119 3.107401 29.605686  
2002-03-01 08:52:30 51°14.531 2°54.816 8.880962 3.087777 29.406139  
2002-03-01 08:52:35 51°14.527 2°54.821 8.775566 3.063548 29.159654  
2002-03-01 08:52:39 51°14.525 2°54.825 8.514896 3.042323 28.942802  
2002-03-01 08:52:45 51°14.521 2°54.83 9.290835 3.011189 28.624103  
2002-03-01 08:52:49 51°14.518 2°54.833 9.290835 3.011189 28.624103  
2002-03-01 08:52:55 51°14.514 2°54.838 8.549726 2.987964 28.386597  
2002-03-01 08:52:59 51°14.512 2°54.842 8.739997 2.965842 28.158771  
2002-03-01 08:53:05 51°14.508 2°54.846 8.601408 2.955331 28.049344  
2002-03-01 08:53:09 51°14.506 2°54.849 8.758836 2.939816 27.888256  
2002-03-01 08:53:15 51°14.503 2°54.854 8.533704 2.921199 27.700825  
2002-03-01 08:53:19 51°14.5 2°54.857 8.533704 2.921199 27.700825  
2002-03-01 08:53:25 51°14.497 2°54.861 8.721871 2.903683 27.524984  
2002-03-01 08:53:29 51°14.495 2°54.864 8.821241 2.889371 27.378057  
2002-03-01 08:53:35 51°14.491 2°54.868 8.7759 2.868854 27.169046  
2002-03-01 08:53:39 51°14.489 2°54.871 8.889073 2.850839 26.988872  
2002-03-01 08:53:45 51°14.486 2°54.875 8.761943 2.835127 26.830179  
2002-03-01 08:53:49 51°14.484 2°54.878 8.761943 2.835127 26.830179  
2002-03-01 08:53:55 51°14.481 2°54.881 8.375101 2.821618 26.691926  
2002-03-01 08:53:59 51°14.479 2°54.884 8.754963 2.808909 26.56272  
2002-03-01 08:54:05 51°14.476 2°54.888 8.783308 2.788395 26.354863  
2002-03-01 08:54:09 51°14.473 2°54.89 8.973323 2.766381 26.130268  
2002-03-01 08:54:15 51°14.471 2°54.894 8.75788 2.741366 25.875916  
2002-03-01 08:54:19 51°14.469 2°54.896 8.75788 2.741366 25.875916  
2002-03-01 08:54:25 51°14.466 2°54.9 8.863686 2.725057 25.70842  
2002-03-01 08:54:29 51°14.464 2°54.902 8.600881 2.705447 25.510484  
2002-03-01 08:54:35 51°14.461 2°54.906 8.55385 2.684438 25.297539  
2002-03-01 08:54:40 51°14.459 2°54.908 8.431007 2.672733 25.179294  
2002-03-01 08:54:45 51°14.458 2°54.91 8.431007 2.672733 25.179294  
2002-03-01 08:54:50 51°14.457 2°54.911 8.921318 2.664629 25.096574  
2002-03-01 08:54:55 51°14.456 2°54.911 8.549726 2.655526 25.004127  
2002-03-01 08:55:00 51°14.456 2°54.909 8.365722 2.651424 24.963478  
2002-03-01 08:55:05 51°14.456 2°54.907 8.656496 2.658727 25.033646  
2002-03-01 08:55:10 51°14.457 2°54.903 8.308363 2.647823 24.925002  
2002-03-01 08:55:15 51°14.457 2°54.9 8.254566 2.641121 24.859852  
2002-03-01 08:55:20 51°14.457 2°54.897 8.254566 2.641121 24.859852  
2002-03-01 08:55:25 51°14.457 2°54.895 8.311203 2.63812 24.832398  
2002-03-01 08:55:31 51°14.457 2°54.896 8.530922 2.644522 24.896849  
2002-03-01 08:55:36 51°14.456 2°54.9 8.111355 2.649224 24.944912  
2002-03-01 08:55:39 51°14.456 2°54.903 8.713451 2.650224 24.956471  
2002-03-01 08:55:45 51°14.457 2°54.911 8.807341 2.648123 24.938335  
2002-03-01 08:55:49 51°14.458 2°54.918 8.807341 2.648123 24.938335  
2002-03-01 08:55:55 51°14.461 2°54.93 8.394719 2.647323 24.931855  
2002-03-01 08:55:59 51°14.465 2°54.937 8.624167 2.655226 25.014899  
2002-03-01 08:56:05 51°14.471 2°54.948 8.545025 2.680536 25.276612  
2002-03-01 08:56:09 51°14.476 2°54.954 8.517055 2.711951 25.600795  
2002-03-01 08:56:15 51°14.484 2°54.963 8.720005 2.753273 26.024742  
2002-03-01 08:56:19 51°14.49 2°54.967 8.720005 2.753273 26.024742  
2002-03-01 08:56:25 51°14.498 2°54.973 8.518879 2.788095 26.379075  
2002-03-01 08:56:29 51°14.504 2°54.975 8.51552 2.816114 26.663482  
2002-03-01 08:56:35 51°14.513 2°54.979 8.6337 2.834227 26.847953  
2002-03-01 08:56:39 51°14.521 2°54.98 8.945872 2.847437 26.983271  
2002-03-01 08:56:45 51°14.533 2°54.98 8.623736 2.855043 27.057495  
2002-03-01 08:56:49 51°14.542 2°54.978 8.623736 2.855043 27.057495  
2002-03-01 08:56:55 51°14.556 2°54.973 8.27345 2.843934 26.940199  
2002-03-01 08:56:59 51°14.566 2°54.969 8.433698 2.7962 26.445676  
2002-03-01 08:57:05 51°14.581 2°54.962 8.314765 2.721155 25.675345  
2002-03-01 08:57:09 51°14.592 2°54.957 8.261022 2.610811 24.544113  
2002-03-01 08:57:15 51°14.607 2°54.949 8.642752 2.510995 23.523499  
2002-03-01 08:57:20 51°14.619 2°54.942 8.642752 2.510995 23.523499  
2002-03-01 08:57:25 51°14.632 2°54.935 9.050896 2.431998 22.727137  
2002-03-01 08:57:29 51°14.642 2°54.928 8.675024 2.368212 22.086849  
2002-03-01 08:57:35 51°14.657 2°54.919 8.692685 2.357216 21.976629  
2002-03-01 08:57:39 51°14.667 2°54.912 8.567661 2.357916 21.986432  
2002-03-01 08:57:45 51°14.682 2°54.902 8.818328 2.396705 22.380395  
2002-03-01 08:57:49 51°14.693 2°54.894 8.818328 2.396705 22.380395  
2002-03-01 08:57:55 51°14.708 2°54.883 8.712973 2.455296 22.971559  
2002-03-01 08:57:59 51°14.717 2°54.876 8.583386 2.531796 23.74781  
2002-03-01 08:58:05 51°14.732 2°54.864 9.104747 2.619814 24.646051  
2002-03-01 08:58:09 51°14.742 2°54.856 8.839579 2.703447 25.499567  
2002-03-01 08:58:15 51°14.757 2°54.843 8.839579 2.703447 25.499567  
2002-03-01 08:58:19 51°14.766 2°54.834 8.699002 2.788995 26.37764  
2002-03-01 08:58:25 51°14.78 2°54.821 8.901382 2.872657 27.233014  
2002-03-01 08:58:29 51°14.79 2°54.812 8.719 2.947824 28.0051  
2002-03-01 08:58:34 51°14.802 2°54.8 8.528427 3.012391 28.670508  
2002-03-01 08:58:39 51°14.813 2°54.788 8.924799 3.077065 29.340658  
2002-03-01 08:58:45 51°14.827 2°54.774 8.151036 3.118315 29.759301  
2002-03-01 08:58:49 51°14.835 2°54.764 8.151036 3.118315 29.759301  
2002-03-01 08:58:55 51°14.847 2°54.75 8.623066 3.148655 30.063765  
2002-03-01 08:58:59 51°14.855 2°54.741 8.822101 3.183001 30.418767  
2002-03-01 08:59:05 51°14.866 2°54.728 8.64577 3.206934 30.6617  
2002-03-01 08:59:09 51°14.873 2°54.719 9.034618 3.22466 30.842709  
2002-03-01 08:59:15 51°14.883 2°54.706 9.068407 3.242185 31.02093  
2002-03-01 08:59:19 51°14.889 2°54.697 9.068407 3.242185 31.02093  
2002-03-01 08:59:25 51°14.898 2°54.683 8.726319 3.249095 31.086693  
2002-03-01 08:59:29 51°14.904 2°54.675 9.033285 3.264218 31.241002  
2002-03-01 08:59:35 51°14.912 2°54.661 8.965461 3.278339 31.38625  
2002-03-01 08:59:39 51°14.917 2°54.652 8.817277 3.284148 31.442591  
2002-03-01 08:59:45 51°14.925 2°54.639 8.741432 3.294364 31.542662  
2002-03-01 08:59:49 51°14.929 2°54.63 8.741432 3.294364 31.542662  
2002-03-01 08:59:55 51°14.937 2°54.616 8.876429 3.302777 31.631193  
2002-03-01 08:59:59 51°14.941 2°54.607 9.1691 3.307384 31.679343  
2002-03-01 09:00:05 51°14.948 2°54.594 8.500066 3.313795 31.745885  
2002-03-01 09:00:09 51°14.952 2°54.585 8.702112 3.313194 31.736454  
2002-03-01 09:00:15 51°14.958 2°54.571 8.781014 3.315898 31.761358  
2002-03-01 09:00:19 51°14.963 2°54.562 8.781014 3.315898 31.761358  
2002-03-01 09:00:25 51°14.968 2°54.548 8.546464 3.321306 31.81574  
2002-03-01 09:00:29 51°14.972 2°54.539 8.520894 3.32371 31.838977  
2002-03-01 09:00:35 51°14.978 2°54.525 8.915309 3.325413 31.857061  
2002-03-01 09:00:40 51°14.982 2°54.513 8.825301 3.328718 31.890639  
2002-03-01 09:00:45 51°14.987 2°54.501 8.866598 3.330621 31.909323  
2002-03-01 09:00:50 51°14.991 2°54.49 8.866598 3.330621 31.909323  
2002-03-01 09:00:55 51°14.995 2°54.478 8.67287 3.333025 31.933327  
2002-03-01 09:01:00 51°14.999 2°54.466 8.746692 3.334628 31.950352  
2002-03-01 09:01:05 51°15.003 2°54.454 8.509665 3.336931 31.969457  
2002-03-01 09:01:10 51°15.007 2°54.442 9.297189 3.337332 31.972179  
2002-03-01 09:01:15 51°15.01 2°54.43 8.753051 3.338434 31.983884  
2002-03-01 09:01:20 51°15.013 2°54.418 8.753051 3.338434 31.983884  
2002-03-01 09:01:25 51°15.015 2°54.406 8.985043 3.339335 31.992693  
2002-03-01 09:01:30 51°15.017 2°54.393 8.793869 3.341138 32.012616  
2002-03-01 09:01:35 51°15.018 2°54.381 9.106887 3.341439 32.016577  
2002-03-01 09:01:40 51°15.018 2°54.37 8.638825 3.342741 32.030413  
2002-03-01 09:01:45 51°15.018 2°54.359 8.754198 3.342641 32.029348  
2002-03-01 09:01:50 51°15.017 2°54.348 8.754198 3.342641 32.029348  
2002-03-01 09:01:55 51°15.016 2°54.338 8.831509 3.343342 32.035261  
2002-03-01 09:02:00 51°15.015 2°54.328 8.910969 3.344143 32.044545  
2002-03-01 09:02:05 51°15.013 2°54.318 9.225701 3.345045 32.051817  
2002-03-01 09:02:10 51°15.011 2°54.309 8.994428 3.345946 32.059858  
2002-03-01 09:02:15 51°15.009 2°54.301 8.91507 3.346447 32.06518  
2002-03-01 09:02:20 51°15.007 2°54.293 8.91507 3.346447 32.06518  
2002-03-01 09:02:25 51°15.004 2°54.285 8.759744 3.347248 32.072156  
2002-03-01 09:02:30 51°15.002 2°54.278 8.724549 3.347248 32.072156  
2002-03-01 09:02:35 51°14.999 2°54.271 8.725841 3.34855 32.085223  
2002-03-01 09:02:40 51°14.996 2°54.264 8.49061 3.348851 32.088416  
2002-03-01 09:02:45 51°14.993 2°54.257 8.688282 3.349251 32.090364  
2002-03-01 09:02:50 51°14.99 2°54.251 8.688282 3.349251 32.090364  
2002-03-01 09:02:55 51°14.986 2°54.246 8.490898 3.349552 32.093557  
2002-03-01 09:03:00 51°14.983 2°54.24 8.493106 3.350353 32.099762  
2002-03-01 09:03:05 51°14.979 2°54.235 8.569003 3.350453 32.099286  
2002-03-01 09:03:10 51°14.976 2°54.23 8.340321 3.351255 32.10626  
2002-03-01 09:03:14 51°14.973 2°54.227 9.123575 3.350654 32.100645  
2002-03-01 09:03:20 51°14.969 2°54.222 9.123575 3.350654 32.100645  
2002-03-01 09:03:24 51°14.966 2°54.219 8.887213 3.351956 32.111399  
2002-03-01 09:03:30 51°14.962 2°54.214 9.040235 3.352457 32.117491  
2002-03-01 09:03:33 51°14.959 2°54.212 9.198214 3.352156 32.112758  
2002-03-01 09:03:40 51°14.954 2°54.207 8.965889 3.353859 32.131621  
2002-03-01 09:03:44 51°14.951 2°54.205 8.966938 3.353158 32.120319  
2002-03-01 09:03:49 51°14.947 2°54.202 8.966938 3.353158 32.120319  
2002-03-01 09:03:55 51°14.943 2°54.2 8.924942 3.353058 32.120795  
2002-03-01 09:03:59 51°14.94 2°54.198 8.963983 3.353859 32.127768  
2002-03-01 09:04:04 51°14.936 2°54.197 9.317857 3.353258 32.122153  
2002-03-01 09:04:09 51°14.932 2°54.195 8.691297 3.353859 32.128538  
2002-03-01 09:04:15 51°14.928 2°54.193 9.159599 3.353759 32.128245  
2002-03-01 09:04:20 51°14.924 2°54.192 9.159599 3.353759 32.128245  
2002-03-01 09:04:25 51°14.921 2°54.191 8.573462 3.353659 32.12718  
2002-03-01 09:04:30 51°14.917 2°54.19 8.92375 3.353959 32.128832  
2002-03-01 09:04:34 51°14.915 2°54.19 9.080776 3.35456 32.132906  
2002-03-01 09:04:40 51°14.911 2°54.189 8.94406 3.35426 32.132025  
2002-03-01 09:04:45 51°14.907 2°54.189 9.041329 3.35456 32.135217  
2002-03-01 09:04:50 51°14.904 2°54.189 9.041329 3.35456 32.135217  
2002-03-01 09:04:54 51°14.901 2°54.189 8.964031 3.35476 32.137346  
2002-03-01 09:04:59 51°14.898 2°54.19 8.925895 3.354961 32.141016  
2002-03-01 09:05:05 51°14.895 2°54.19 9.041805 3.35476 32.138887  
2002-03-01 09:05:10 51°14.892 2°54.191 8.690532 3.354961 32.141787  
2002-03-01 09:05:14 51°14.889 2°54.192 9.119439 3.355261 32.144209  
2002-03-01 09:05:20 51°14.886 2°54.193 9.119439 3.355261 32.144209  
2002-03-01 09:05:25 51°14.883 2°54.195 8.845499 3.355061 32.14208  
2002-03-01 09:05:30 51°14.88 2°54.196 8.805813 3.355462 32.144796  
2002-03-01 09:05:35 51°14.877 2°54.197 8.962315 3.355161 32.143144  
2002-03-01 09:05:39 51°14.875 2°54.199 8.49157 3.355562 32.147402  
2002-03-01 09:05:45 51°14.872 2°54.201 8.49157 3.355562 32.147402  
2002-03-01 09:05:50 51°14.87 2°54.202 9.196267 3.355462 32.145566  
2002-03-01 09:05:55 51°14.867 2°54.205 8.611183 3.355462 32.144796  
2002-03-01 09:06:00 51°14.865 2°54.206 9.236332 3.355462 32.144796  
2002-03-01 09:06:05 51°14.862 2°54.209 8.731006 3.355462 32.145566  
2002-03-01 09:06:10 51°14.859 2°54.211 9.002239 3.355261 32.143438  
2002-03-01 09:06:15 51°14.857 2°54.213 8.768014 3.355361 32.145273  
2002-03-01 09:06:20 51°14.854 2°54.215 8.768014 3.355361 32.145273  
2002-03-01 09:06:25 51°14.852 2°54.218 8.570634 3.355161 32.143915  
2002-03-01 09:06:30 51°14.849 2°54.22 8.649409 3.355462 32.147108  
2002-03-01 09:06:35 51°14.847 2°54.222 9.039663 3.356163 32.153788  
2002-03-01 09:06:40 51°14.844 2°54.225 8.845069 3.355261 32.14498  
2002-03-01 09:06:45 51°14.841 2°54.227 8.610369 3.355962 32.150888  
2002-03-01 09:06:50 51°14.838 2°54.23 8.610369 3.355962 32.150888  
2002-03-01 09:06:55 51°14.836 2°54.232 8.921699 3.355662 32.145382  
2002-03-01 09:07:00 51°14.833 2°54.235 8.450609 3.356063 32.153495  
2002-03-01 09:07:05 51°14.83 2°54.237 8.999334 3.355462 32.147879  
2002-03-01 09:07:10 51°14.828 2°54.24 8.803615 3.355862 32.152137  
2002-03-01 09:07:15 51°14.825 2°54.243 8.801895 3.355462 32.147879  
2002-03-01 09:07:20 51°14.822 2°54.245 8.801895 3.355462 32.147879  
2002-03-01 09:07:25 51°14.819 2°54.248 8.725458 3.355361 32.146815  
2002-03-01 09:07:30 51°14.817 2°54.251 8.802707 3.355361 32.147586  
2002-03-01 09:07:35 51°14.814 2°54.254 9.074735 3.355962 32.153201  
2002-03-01 09:07:40 51°14.811 2°54.256 8.64553 3.355261 32.146522  
2002-03-01 09:07:45 51°14.808 2°54.26 8.996762 3.354861 32.143035  
2002-03-01 09:07:50 51°14.806 2°54.262 8.996762 3.354861 32.143035  
2002-03-01 09:07:55 51°14.803 2°54.265 8.959122 3.35466 32.141677  
2002-03-01 09:07:59 51°14.801 2°54.268 8.682395 3.354861 32.143035  
2002-03-01 09:08:05 51°14.797 2°54.271 8.643471 3.35476 32.142742  
2002-03-01 09:08:10 51°14.795 2°54.275 8.759744 3.355462 32.149422  
2002-03-01 09:08:15 51°14.792 2°54.278 8.956596 3.35466 32.141677  
2002-03-01 09:08:20 51°14.789 2°54.281 8.956596 3.35466 32.141677  
2002-03-01 09:08:25 51°14.786 2°54.284 8.838003 3.35466 32.141677  
2002-03-01 09:08:30 51°14.783 2°54.287 8.408035 3.35476 32.143513  
2002-03-01 09:08:35 51°14.78 2°54.29 9.227267 3.354059 32.136833  
2002-03-01 09:08:40 51°14.778 2°54.294 8.837191 3.354059 32.137603  
2002-03-01 09:08:45 51°14.775 2°54.297 8.562674 3.354059 32.138374  
2002-03-01 09:08:50 51°14.772 2°54.3 8.562674 3.354059 32.138374  
2002-03-01 09:08:55 51°14.769 2°54.303 8.875618 3.353959 32.13731  
2002-03-01 09:09:00 51°14.767 2°54.307 9.032237 3.353559 32.133823  
2002-03-01 09:09:05 51°14.764 2°54.31 8.680624 3.353659 32.134116  
2002-03-01 09:09:10 51°14.761 2°54.313 8.914737 3.353759 32.137494  
2002-03-01 09:09:15 51°14.758 2°54.316 8.679332 3.353058 32.130042  
2002-03-01 09:09:20 51°14.755 2°54.32 8.679332 3.353058 32.130042  
2002-03-01 09:09:25 51°14.752 2°54.323 8.756637 3.353559 32.135365  
2002-03-01 09:09:30 51°14.75 2°54.327 8.912829 3.353458 32.131987  
2002-03-01 09:09:35 51°14.747 2°54.33 8.952211 3.352557 32.123949  
2002-03-01 09:09:40 51°14.744 2°54.333 9.185725 3.352457 32.121343  
2002-03-01 09:09:45 51°14.741 2°54.336 8.755633 3.352657 32.125013  
2002-03-01 09:09:50 51°14.738 2°54.34 8.755633 3.352657 32.125013  
2002-03-01 09:09:55 51°14.736 2°54.344 9.067503 3.352357 32.123361  
2002-03-01 09:10:00 51°14.733 2°54.347 8.951735 3.352156 32.122003  
2002-03-01 09:10:05 51°14.73 2°54.35 8.990998 3.352256 32.122297  
2002-03-01 09:10:10 51°14.727 2°54.354 9.18449 3.352156 32.122003  
2002-03-01 09:10:15 51°14.724 2°54.357 8.519023 3.351956 32.120644  
2002-03-01 09:10:20 51°14.722 2°54.361 8.519023 3.351956 32.120644  
2002-03-01 09:10:25 51°14.719 2°54.364 8.674497 3.351655 32.115139  
2002-03-01 09:10:30 51°14.716 2°54.368 9.063887 3.351555 32.114845  
2002-03-01 09:10:35 51°14.713 2°54.371 8.753768 3.351255 32.113193  
2002-03-01 09:10:40 51°14.711 2°54.375 8.751569 3.351555 32.114075  
2002-03-01 09:10:45 51°14.708 2°54.379 9.219293 3.350654 32.106806  
2002-03-01 09:10:50 51°14.706 2°54.383 9.219293 3.350654 32.106806  
2002-03-01 09:10:55 51°14.703 2°54.386 8.790237 3.350954 32.11077  
2002-03-01 09:11:00 51°14.701 2°54.39 8.870511 3.349953 32.100895  
2002-03-01 09:11:05 51°14.699 2°54.394 8.867648 3.350153 32.104564  
2002-03-01 09:11:10 51°14.697 2°54.398 9.298659 3.350253 32.104859  
2002-03-01 09:11:15 51°14.694 2°54.402 9.218391 3.349652 32.097701  
2002-03-01 09:11:20 51°14.692 2°54.406 9.218391 3.349652 32.097701  
2002-03-01 09:11:25 51°14.69 2°54.41 8.790476 3.349252 32.093444  
2002-03-01 09:11:30 51°14.688 2°54.414 9.332263 3.350253 32.106399  
2002-03-01 09:11:35 51°14.685 2°54.417 8.703643 3.349452 32.097113  
2002-03-01 09:11:40 51°14.683 2°54.421 9.053323 3.348951 32.09333  
2002-03-01 09:11:45 51°14.681 2°54.425 8.656352 3.34825 32.085109  
2002-03-01 09:11:50 51°14.679 2°54.429 8.656352 3.34825 32.085109  
2002-03-01 09:11:55 51°14.677 2°54.433 9.004811 3.348651 32.090137  
2002-03-01 09:11:59 51°14.676 2°54.436 8.805335 3.346447 32.066718  
2002-03-01 09:12:05 51°14.673 2°54.441 8.763234 3.338734 31.985541  
2002-03-01 09:12:10 51°14.671 2°54.445 9.192468 3.326715 31.861713  
2002-03-01 09:12:15 51°14.669 2°54.448 8.996476 3.312793 31.716969